Time;durP1;ratioP1;P1;durP2;ratioP2;P2;SDS_P1;SDS_P2;PMS_P1;PMS_P2;Temp;Humidity;BMP_temperature;BMP_pressure;BME280_temperature;BME280_humidity;BME280_pressure;Samples;Min_cycle;Max_cycle;Signal;HPM_P1;HPM_P2
2024/03/22 00:01:45;;;;;;;;;;;;;;;10.58;100.00;100341.38;5091323;28;20011;-85
2024/03/22 00:04:10;;;;;;;;;;;;;;;10.58;100.00;100340.47;5100036;28;19966;-83
2024/03/22 00:06:35;;;;;;;;;;;;;;;10.58;100.00;100336.06;5093766;28;20371;-83
2024/03/22 00:09:00;;;;;;;;;;;;;;;10.60;100.00;100334.22;5090059;28;21535;-84
2024/03/22 00:11:39;;;;;;;;;;;;;;;;;;;;;
2024/03/22 00:14:04;;;;;;;;;;;;;;;10.60;100.00;100328.06;5096620;28;19924;-94
2024/03/22 00:16:39;;;;;;;;;;;;;;;10.60;100.00;100323.63;5094443;28;20031;-88
2024/03/22 00:19:07;;;;;;;;;;;;;;;10.61;100.00;100319.16;5092994;28;19970;-87
2024/03/22 00:21:33;;;;;;;;;;;;;;;10.62;100.00;100324.41;5089749;28;19920;-83
2024/03/22 00:23:58;;;;;;;;;;;;;;;10.63;100.00;100325.31;5092650;28;20275;-84
2024/03/22 00:26:23;;;;;;;;;;;;;;;10.63;100.00;100323.50;5092052;28;19939;-84
2024/03/22 00:28:49;;;;;;;;;;;;;;;10.64;100.00;100319.06;5093151;28;20415;-85
2024/03/22 00:31:14;;;;;;;;;;;;;;;10.64;100.00;100313.78;5093341;28;19920;-82
2024/03/22 00:33:39;;;;;;;;;;;;;;;10.65;100.00;100311.06;5093139;28;20022;-83
2024/03/22 00:36:05;;;;;;;;;;;;;;;10.67;100.00;100311.00;5092180;28;20329;-81
2024/03/22 00:38:30;;;;;;;;;;;;;;;10.65;100.00;100311.06;5092209;28;19997;-82
2024/03/22 06:15:09;;;;;;;;;;;;;;;11.14;100.00;100101.59;4944933;29;19981;-86
2024/03/22 06:17:35;;;;;;;;;;;;;;;11.15;100.00;100098.00;4936542;29;20369;-87
2024/03/22 06:20:00;;;;;;;;;;;;;;;11.16;100.00;100088.28;4953748;28;19922;-90
2024/03/22 06:22:25;;;;;;;;;;;;;;;11.15;100.00;100091.84;4956138;29;19918;-86
2024/03/22 06:24:51;;;;;;;;;;;;;;;11.16;100.00;100088.28;4957362;29;19977;-84
2024/03/22 06:27:16;;;;;;;;;;;;;;;11.17;100.00;100089.97;4956132;29;19960;-86
2024/03/22 06:29:41;;;;;;;;;;;;;;;11.18;100.00;100089.91;4957407;29;19929;-91
2024/03/22 06:32:06;;;;;;;;;;;;;;;11.18;100.00;100086.41;4939937;29;19918;-92
2024/03/22 06:34:32;;;;;;;;;;;;;;;11.17;100.00;100084.66;4957375;29;19976;-89
2024/03/22 06:36:57;;;;;;;;;;;;;;;11.16;100.00;100090.91;4957133;29;19925;-84
2024/03/22 06:39:22;;;;;;;;;;;;;;;11.17;100.00;100088.22;4957095;29;19922;-85
2024/03/22 06:41:47;;;;;;;;;;;;;;;11.18;100.00;100091.72;4955822;29;20361;-88
2024/03/22 06:44:13;;;;;;;;;;;;;;;11.17;100.00;100080.25;4957129;29;20010;-89
2024/03/22 06:46:39;;;;;;;;;;;;;;;11.17;100.00;100077.59;4957057;29;20328;-87
2024/03/22 06:49:05;;;;;;;;;;;;;;;11.18;100.00;100070.50;4957027;29;19923;-87
2024/03/22 06:51:30;;;;;;;;;;;;;;;11.17;100.00;100074.94;4956764;29;19919;-89
2024/03/22 06:53:55;;;;;;;;;;;;;;;11.16;100.00;100077.66;4956837;29;19973;-89
2024/03/22 06:56:21;;;;;;;;;;;;;;;11.18;100.00;100066.03;4938373;29;20313;-88
2024/03/22 06:58:46;;;;;;;;;;;;;;;11.18;100.00;100071.34;4956656;29;20302;-87
2024/03/22 07:01:11;;;;;;;;;;;;;;;11.19;100.00;100064.28;4956771;29;20065;-85
2024/03/22 07:03:37;;;;;;;;;;;;;;;11.18;100.00;100074.00;4956721;29;19923;-86
2024/03/22 07:06:02;;;;;;;;;;;;;;;11.20;100.00;100069.53;4939391;29;19919;-86
2024/03/22 07:08:28;;;;;;;;;;;;;;;11.19;100.00;100069.56;4956616;29;20025;-84
2024/03/22 07:10:54;;;;;;;;;;;;;;;11.20;100.00;100068.63;4956423;29;19918;-87
2024/03/22 07:13:20;;;;;;;;;;;;;;;11.19;100.00;100065.13;4955101;29;19925;-82
2024/03/22 07:15:47;;;;;;;;;;;;;;;11.19;100.00;100062.47;4956552;29;20001;-86
2024/03/22 07:18:12;;;;;;;;;;;;;;;11.20;100.00;100058.91;4956276;29;20341;-88
2024/03/22 07:20:37;;;;;;;;;;;;;;;11.19;100.00;100059.81;4939125;29;20012;-88
2024/03/22 07:23:04;;;;;;;;;;;;;;;11.19;100.00;100056.31;4956183;29;20009;-87
2024/03/22 07:25:29;;;;;;;;;;;;;;;11.21;100.00;100057.97;4956202;29;19923;-87
2024/03/22 07:27:54;;;;;;;;;;;;;;;11.21;100.00;100051.81;4955809;29;20017;-86
2024/03/22 07:30:21;;;;;;;;;;;;;;;11.21;100.00;100052.66;4956184;29;20028;-91
2024/03/22 07:32:47;;;;;;;;;;;;;;;11.24;100.00;100054.34;4956451;28;20318;-89
2024/03/22 07:35:12;;;;;;;;;;;;;;;11.22;100.00;100056.19;4938650;29;19923;-85
2024/03/22 07:37:38;;;;;;;;;;;;;;;11.22;100.00;100051.75;4956229;29;19922;-93
2024/03/22 07:40:05;;;;;;;;;;;;;;;11.22;100.00;100051.75;4955899;29;19919;-91
2024/03/22 07:42:30;;;;;;;;;;;;;;;11.24;100.00;100052.53;4954758;29;20020;-92
2024/03/22 07:44:55;;;;;;;;;;;;;;;11.24;100.00;100049.03;4955231;29;20465;-88
2024/03/22 07:47:21;;;;;;;;;;;;;;;11.26;100.00;100052.47;4956049;29;19923;-90
2024/03/22 07:49:49;;;;;;;;;;;;;;;11.25;100.00;100048.13;4939169;29;19919;-95
2024/03/22 07:52:14;;;;;;;;;;;;;;;11.26;100.00;100042.75;4955910;29;19926;-89
2024/03/22 07:54:39;;;;;;;;;;;;;;;11.27;100.00;100047.09;4956000;29;19971;-90
2024/03/22 07:57:04;;;;;;;;;;;;;;;11.26;100.00;100039.22;4954496;29;19961;-87
2024/03/22 07:59:30;;;;;;;;;;;;;;;11.27;100.00;100047.09;4955579;29;19942;-90
2024/03/22 08:01:57;;;;;;;;;;;;;;;11.27;100.00;100038.28;4955670;29;19918;-85
2024/03/22 08:04:22;;;;;;;;;;;;;;;11.30;100.00;100035.50;4955594;29;20261;-87
2024/03/22 08:06:47;;;;;;;;;;;;;;;11.30;100.00;100027.56;4954832;29;19918;-88
2024/03/22 08:09:12;;;;;;;;;;;;;;;11.30;100.00;100032.84;4955322;29;19919;-85
2024/03/22 08:11:38;;;;;;;;;;;;;;;11.33;100.00;100026.53;4936852;29;19962;-86
2024/03/22 08:14:03;;;;;;;;;;;;;;;11.31;100.00;100023.09;4955789;28;19923;-90
2024/03/22 08:16:29;;;;;;;;;;;;;;;11.31;100.00;100023.94;4955663;29;20363;-87
2024/03/22 08:18:54;;;;;;;;;;;;;;;11.31;100.00;100017.78;4955420;29;20358;-87
2024/03/22 08:21:19;;;;;;;;;;;;;;;11.32;100.00;100019.53;4955473;29;19972;-87
2024/03/22 08:23:45;;;;;;;;;;;;;;;11.32;100.00;100020.38;4955437;29;19922;-84
2024/03/22 08:26:10;;;;;;;;;;;;;;;11.32;100.00;100019.53;4955451;29;19929;-89
2024/03/22 08:28:35;;;;;;;;;;;;;;;11.31;100.00;100018.66;4936674;29;20385;-86
2024/03/22 08:31:04;;;;;;;;;;;;;;;11.31;100.00;100018.66;4955644;29;20534;-89
2024/03/22 08:33:29;;;;;;;;;;;;;;;11.33;100.00;100019.47;4954658;29;19919;-86
2024/03/22 08:35:55;;;;;;;;;;;;;;;11.33;100.00;100018.59;4954971;29;19922;-84
2024/03/22 08:38:20;;;;;;;;;;;;;;;11.33;100.00;100019.47;4937557;29;19938;-85
2024/03/22 08:40:45;;;;;;;;;;;;;;;11.34;100.00;100018.53;4954842;29;20013;-86
2024/03/22 09:56:27;;;;;;;;;;;;;;;11.43;100.00;99901.41;5029226;23;20207;-90
2024/03/22 09:58:53;;;;;;;;;;;;;;;11.47;100.00;99898.59;4961002;29;19942;-92
2024/03/22 10:01:18;;;;;;;;;;;;;;;11.51;100.00;99900.22;4962907;29;19922;-93
2024/03/22 10:03:43;;;;;;;;;;;;;;;11.53;100.00;99890.38;4964893;29;20312;-91
2024/03/22 10:06:09;;;;;;;;;;;;;;;11.57;100.00;99891.97;4960680;28;19933;-85
2024/03/22 10:08:34;;;;;;;;;;;;;;;11.57;100.00;99891.97;4958932;29;20009;-89
2024/03/22 10:11:03;;;;;;;;;;;;;;;11.58;100.00;99889.25;4956938;29;19965;-83
2024/03/22 10:13:29;;;;;;;;;;;;;;;11.60;100.00;99875.91;4958647;29;20772;-84
2024/03/22 10:15:54;;;;;;;;;;;;;;;11.61;100.00;99878.47;4957208;29;19922;-90
2024/03/22 10:18:28;;;;;;;;;;;;;;;11.60;100.00;99878.56;4969033;23;20528;-90
2024/03/22 10:21:00;;;;;;;;;;;;;;;11.60;100.00;99868.81;4936378;29;19931;-89
2024/03/22 10:23:28;;;;;;;;;;;;;;;11.60;100.00;99870.59;4955707;29;19962;-93
2024/03/22 10:25:53;;;;;;;;;;;;;;;11.62;100.00;99868.72;4948159;29;20005;-92
2024/03/22 10:28:19;;;;;;;;;;;;;;;11.62;100.00;99863.44;4950657;29;19915;-85
2024/03/22 10:30:44;;;;;;;;;;;;;;;11.61;100.00;99856.38;4948052;29;20274;-89
2024/03/22 10:33:10;;;;;;;;;;;;;;;11.62;100.00;99855.47;4942067;29;19974;-93
2024/03/22 10:35:36;;;;;;;;;;;;;;;11.62;100.00;99852.81;4938173;29;20397;-86
2024/03/22 10:38:02;;;;;;;;;;;;;;;11.61;100.00;99845.78;4938661;29;19922;-85
2024/03/22 10:40:27;;;;;;;;;;;;;;;11.62;100.00;99843.03;4937819;29;19990;-93
2024/03/22 10:42:53;;;;;;;;;;;;;;;11.66;100.00;99833.13;4939842;29;20366;-86
2024/03/22 10:45:22;;;;;;;;;;;;;;;11.65;100.00;99836.75;4939847;29;20009;-89
2024/03/22 10:47:48;;;;;;;;;;;;;;;11.66;100.00;99832.28;4939225;29;20374;-95
2024/03/22 10:50:15;;;;;;;;;;;;;;;11.66;100.00;99830.50;4937484;29;19926;-93
2024/03/22 10:52:55;;;;;;;;;;;;;;;11.66;100.00;99821.69;4938383;29;19942;-91
2024/03/22 10:55:41;;;;;;;;;;;;;;;11.66;100.00;99827.84;4938443;29;19949;-91
2024/03/22 10:58:06;;;;;;;;;;;;;;;11.66;100.00;99830.50;4952824;28;19931;-94
2024/03/22 11:00:32;;;;;;;;;;;;;;;11.70;100.00;99824.13;4936782;29;20366;-90
2024/03/22 11:02:58;;;;;;;;;;;;;;;11.68;100.00;99817.16;4951770;28;19923;-92
2024/03/22 11:05:23;;;;;;;;;;;;;;;11.68;100.00;99822.44;4937921;29;19923;-86
2024/03/22 11:08:10;;;;;;;;;;;;;;;11.69;100.00;99821.53;4935781;29;20001;-93
2024/03/22 11:10:35;;;;;;;;;;;;;;;11.68;100.00;99810.06;4951063;28;19927;-90
2024/03/22 11:13:04;;;;;;;;;;;;;;;11.72;100.00;99798.34;4936875;29;20009;-87
2024/03/22 11:15:30;;;;;;;;;;;;;;;11.72;100.00;99800.16;4936756;29;20374;-88
2024/03/22 11:17:55;;;;;;;;;;;;;;;11.76;100.00;99802.59;4937994;29;19930;-89
2024/03/22 11:20:20;;;;;;;;;;;;;;;11.73;100.00;99800.09;4937339;29;19923;-86
2024/03/22 11:22:46;;;;;;;;;;;;;;;11.73;100.00;99802.75;4937791;29;20553;-87
2024/03/22 11:28:02;;;;;;;;;;;;;;;11.76;100.00;99783.16;4934115;29;19923;-89
2024/03/22 11:30:28;;;;;;;;;;;;;;;11.83;100.00;99776.59;4937098;29;19919;-87
2024/03/22 11:32:54;;;;;;;;;;;;;;;11.84;100.00;99777.47;4939342;29;20013;-88
2024/03/22 11:35:20;;;;;;;;;;;;;;;11.82;100.00;99786.38;4936464;29;20010;-85
2024/03/22 11:37:52;;;;;;;;;;;;;;;12.39;100.00;99780.09;4936697;29;19934;-89
2024/03/22 11:40:18;;;;;;;;;;;;;;;12.37;100.00;99779.31;4935657;29;20286;-94
2024/03/22 11:42:49;;;;;;;;;;;;;;;12.12;100.00;99774.38;4936685;29;20191;-88
2024/03/22 11:45:15;;;;;;;;;;;;;;;12.02;100.00;99771.31;4951053;29;19922;-88
2024/03/22 11:47:41;;;;;;;;;;;;;;;11.96;100.00;99764.47;4937400;29;20387;-85
2024/03/22 11:50:06;;;;;;;;;;;;;;;11.97;100.00;99762.72;4933972;29;19927;-88
2024/03/22 11:52:34;;;;;;;;;;;;;;;11.96;100.00;99766.28;4935217;29;19929;-92
2024/03/22 11:55:15;;;;;;;;;;;;;;;;;;;;;
2024/03/22 11:57:41;;;;;;;;;;;;;;;11.94;100.00;99754.91;4936855;29;19944;-89
2024/03/22 12:00:25;;;;;;;;;;;;;;;;;;;;;
2024/03/22 12:02:52;;;;;;;;;;;;;;;11.96;100.00;99753.00;4936593;29;19925;-90
2024/03/22 12:05:18;;;;;;;;;;;;;;;11.99;100.00;99747.56;4936452;29;19957;-91
2024/03/22 12:07:46;;;;;;;;;;;;;;;11.97;100.00;99741.47;4935103;29;19918;-91
2024/03/22 12:10:12;;;;;;;;;;;;;;;11.97;100.00;99734.34;4934983;29;19919;-90
2024/03/22 12:12:37;;;;;;;;;;;;;;;12.00;100.00;99741.31;4936584;29;19970;-91
2024/03/22 12:15:12;;;;;;;;;;;;;;;11.95;100.00;99738.88;4936636;29;19926;-89
2024/03/22 12:17:58;;;;;;;;;;;;;;;11.96;100.00;99734.44;4936392;29;19923;-88
2024/03/22 12:20:23;;;;;;;;;;;;;;;11.96;100.00;99727.31;4933361;29;19923;-91
2024/03/22 12:22:48;;;;;;;;;;;;;;;11.96;100.00;99726.47;4935975;29;20393;-88
2024/03/22 12:25:14;;;;;;;;;;;;;;;11.95;100.00;99728.25;4934936;29;19973;-90
2024/03/22 12:27:39;;;;;;;;;;;;;;;11.96;100.00;99718.50;4935905;29;19930;-90
2024/03/22 12:30:06;;;;;;;;;;;;;;;11.95;100.00;99716.75;4936234;29;20448;-93
2024/03/22 12:32:33;;;;;;;;;;;;;;;11.93;100.00;99702.72;4936315;29;20031;-90
2024/03/22 12:35:01;;;;;;;;;;;;;;;11.98;100.00;99708.66;4934687;29;19926;-91
2024/03/22 12:37:26;;;;;;;;;;;;;;;11.97;100.00;99704.28;4936109;29;20035;-83
2024/03/22 12:39:54;;;;;;;;;;;;;;;11.96;100.00;99695.44;4934216;29;20563;-92
2024/03/22 12:42:24;;;;;;;;;;;;;;;11.99;100.00;99692.63;4949801;28;19920;-91
2024/03/22 12:45:09;;;;;;;;;;;;;;;11.97;100.00;99685.72;4934269;29;19915;-88
2024/03/22 12:47:37;;;;;;;;;;;;;;;11.98;100.00;99688.28;4934031;29;20371;-89
2024/03/22 12:50:07;;;;;;;;;;;;;;;11.98;100.00;99687.41;4935448;29;19918;-89
2024/03/22 12:52:33;;;;;;;;;;;;;;;11.96;100.00;99681.31;4935632;29;19923;-86
2024/03/22 12:58:28;;;;;;;;;;;;;;;11.98;100.00;99679.44;4893277;29;20371;-87
2024/03/22 13:01:14;;;;;;;;;;;;;;;11.99;100.00;99666.09;4935344;29;20282;-88
2024/03/22 13:03:39;;;;;;;;;;;;;;;11.98;100.00;99664.38;4935902;29;19919;-86
2024/03/22 13:06:05;;;;;;;;;;;;;;;11.99;100.00;99665.22;4936129;29;19930;-88
2024/03/22 13:08:31;;;;;;;;;;;;;;;11.98;100.00;99658.19;4936208;29;19942;-82
2024/03/22 13:10:56;;;;;;;;;;;;;;;11.98;100.00;99652.88;4934075;29;19923;-88
2024/03/22 13:13:21;;;;;;;;;;;;;;;11.99;100.00;99649.31;4935312;29;20014;-88
2024/03/22 13:18:30;;;;;;;;;;;;;;;11.98;100.00;99636.94;4953976;29;19926;-90
2024/03/22 13:20:56;;;;;;;;;;;;;;;11.98;100.00;99637.84;4954019;29;19935;-87
2024/03/22 13:23:21;;;;;;;;;;;;;;;11.98;100.00;99626.34;4954458;29;19918;-92
2024/03/22 13:25:46;;;;;;;;;;;;;;;11.99;100.00;99628.06;4968394;28;19918;-88
2024/03/22 13:28:24;;;;;;;;;;;;;;;;;;;;;
2024/03/22 13:30:59;;;;;;;;;;;;;;;11.99;100.00;99615.63;4953737;28;19929;-87
2024/03/22 13:33:24;;;;;;;;;;;;;;;12.00;100.00;99608.53;4952780;29;19929;-90
2024/03/22 13:35:49;;;;;;;;;;;;;;;12.00;100.00;99608.53;4952844;29;19919;-86
2024/03/22 13:38:32;;;;;;;;;;;;;;;11.98;100.00;99599.78;4969134;28;20336;-87
2024/03/22 13:41:04;;;;;;;;;;;;;;;12.02;100.00;99590.72;4966765;28;20116;-90
2024/03/22 13:43:29;;;;;;;;;;;;;;;12.03;100.00;99588.91;4968864;28;20145;-87
2024/03/22 13:45:54;;;;;;;;;;;;;;;12.04;100.00;99583.53;4953899;29;19929;-87
2024/03/22 13:48:32;;;;;;;;;;;;;;;12.07;100.00;99575.41;4953944;29;20357;-88
2024/03/22 13:51:09;;;;;;;;;;;;;;;12.07;100.00;99566.59;4968514;28;20266;-88
2024/03/22 13:53:37;;;;;;;;;;;;;;;12.06;100.00;99559.56;4952162;29;20365;-87
2024/03/22 13:56:21;;;;;;;;;;;;;;;12.06;100.00;99560.44;4952532;29;19929;-89
2024/03/22 14:01:37;;;;;;;;;;;;;;;12.07;100.00;99548.00;4953102;29;19918;-88
2024/03/22 14:04:10;;;;;;;;;;;;;;;12.08;100.00;99534.66;4953753;29;20013;-88
2024/03/22 14:06:38;;;;;;;;;;;;;;;12.11;100.00;99533.59;4953524;29;19946;-85
2024/03/22 14:09:04;;;;;;;;;;;;;;;12.32;100.00;99526.31;4953924;29;19919;-87
2024/03/22 14:11:42;;;;;;;;;;;;;;;12.23;100.00;99526.81;4952562;29;19922;-90
2024/03/22 14:14:09;;;;;;;;;;;;;;;12.17;100.00;99515.56;4969125;28;20339;-86
2024/03/22 14:16:36;;;;;;;;;;;;;;;12.16;100.00;99518.31;4953158;29;20274;-87
2024/03/22 14:19:07;;;;;;;;;;;;;;;12.17;100.00;99512.91;4953572;29;19986;-87
2024/03/22 14:21:42;;;;;;;;;;;;;;;;;;;;;
2024/03/22 14:24:08;;;;;;;;;;;;;;;12.13;100.00;99514.00;4953962;29;19922;-89
2024/03/22 14:26:41;;;;;;;;;;;;;;;12.03;100.00;99502.19;4951769;29;20018;-87
2024/03/22 14:29:14;;;;;;;;;;;;;;;11.95;100.00;99509.66;4952415;29;20457;-88
2024/03/22 14:31:39;;;;;;;;;;;;;;;11.85;100.00;99503.94;4968876;28;20329;-88
2024/03/22 14:34:08;;;;;;;;;;;;;;;11.74;100.00;99496.56;4954155;29;19919;-89
2024/03/22 14:36:33;;;;;;;;;;;;;;;11.62;100.00;99486.59;4952199;29;19918;-87
2024/03/22 14:38:59;;;;;;;;;;;;;;;11.49;100.00;99486.38;4954005;29;19927;-86
2024/03/22 14:41:24;;;;;;;;;;;;;;;11.41;100.00;99481.44;4954145;28;19943;-86
2024/03/22 14:43:50;;;;;;;;;;;;;;;11.24;100.00;99482.28;4957102;29;19918;-89
2024/03/22 14:46:18;;;;;;;;;;;;;;;11.09;100.00;99475.97;4972655;28;19976;-88
2024/03/22 14:48:46;;;;;;;;;;;;;;;10.95;100.00;99470.50;4957720;29;19926;-89
2024/03/22 14:51:11;;;;;;;;;;;;;;;10.86;100.00;99466.50;4954838;28;19945;-87
2024/03/22 14:53:37;;;;;;;;;;;;;;;10.79;100.00;99458.94;4954401;28;19918;-87
2024/03/22 14:56:08;;;;;;;;;;;;;;;10.68;100.00;99457.66;4953259;28;20497;-86
2024/03/22 14:58:39;;;;;;;;;;;;;;;10.65;100.00;99449.84;4954642;28;20013;-87
2024/03/22 15:01:05;;;;;;;;;;;;;;;10.61;100.00;99445.66;4938268;29;19919;-88
2024/03/22 15:03:31;;;;;;;;;;;;;;;10.57;100.00;99449.38;4954283;28;19922;-86
2024/03/22 15:05:57;;;;;;;;;;;;;;;10.57;100.00;99446.72;4953785;28;20521;-86
2024/03/22 15:08:35;;;;;;;;;;;;;;;;;;;;;
2024/03/22 15:11:00;;;;;;;;;;;;;;;10.71;100.00;99444.28;4952906;29;19918;-86
2024/03/22 15:13:26;;;;;;;;;;;;;;;10.97;100.00;99442.13;4954181;28;19918;-87
2024/03/22 15:15:59;;;;;;;;;;;;;;;11.15;100.00;99439.47;4954000;28;19918;-89
2024/03/22 15:18:24;;;;;;;;;;;;;;;11.28;100.00;99429.97;4954503;28;19942;-92
2024/03/22 15:20:51;;;;;;;;;;;;;;;11.37;100.00;99434.78;4937432;29;20389;-90
2024/03/22 15:23:16;;;;;;;;;;;;;;;11.47;100.00;99434.31;4955836;29;20371;-87
2024/03/22 15:25:59;;;;;;;;;;;;;;;11.58;100.00;99431.94;4955431;29;19930;-89
2024/03/22 15:28:25;;;;;;;;;;;;;;;11.64;100.00;99434.28;4955151;29;20006;-88
2024/03/22 15:30:50;;;;;;;;;;;;;;;11.74;100.00;99426.69;4957197;29;20018;-92
2024/03/22 15:33:16;;;;;;;;;;;;;;;11.77;100.00;99432.69;4956153;29;20334;-89
2024/03/22 15:35:51;;;;;;;;;;;;;;;11.78;100.00;99426.44;4957620;29;19926;-87
2024/03/22 15:38:17;;;;;;;;;;;;;;;11.85;100.00;99421.66;4956814;29;19965;-88
2024/03/22 15:40:43;;;;;;;;;;;;;;;11.92;100.00;99419.59;4954264;29;20329;-92
2024/03/22 15:43:10;;;;;;;;;;;;;;;11.97;100.00;99428.16;4970640;28;19918;-93
2024/03/22 15:45:38;;;;;;;;;;;;;;;11.98;100.00;99421.88;4956011;29;20013;-92
2024/03/22 15:48:05;;;;;;;;;;;;;;;12.01;100.00;99412.91;4970375;28;19918;-90
2024/03/22 15:50:33;;;;;;;;;;;;;;;12.05;100.00;99410.00;4955875;29;19914;-90
2024/03/22 15:52:59;;;;;;;;;;;;;;;12.10;100.00;99407.94;4955828;28;19919;-91
2024/03/22 15:55:24;;;;;;;;;;;;;;;12.14;100.00;99411.28;4953262;29;20464;-94
2024/03/22 15:57:49;;;;;;;;;;;;;;;12.16;100.00;99404.09;4955870;29;20346;-92
2024/03/22 16:00:15;;;;;;;;;;;;;;;12.18;100.00;99408.38;4955791;29;19923;-90
2024/03/22 16:05:38;;;;;;;;;;;;;;;12.24;100.00;99399.22;4914943;29;19962;-91
2024/03/22 16:08:24;;;;;;;;;;;;;;;12.26;100.00;99394.66;4947522;29;20004;-92
2024/03/22 16:11:02;;;;;;;;;;;;;;;;;;;;;
2024/03/22 16:13:36;;;;;;;;;;;;;;;12.31;100.00;99389.94;4955177;29;19923;-91
2024/03/22 16:16:02;;;;;;;;;;;;;;;12.33;100.00;99392.50;4954059;29;20025;-91
2024/03/22 16:18:48;;;;;;;;;;;;;;;12.36;100.00;99392.34;4955270;29;20429;-89
2024/03/22 16:21:21;;;;;;;;;;;;;;;12.38;100.00;99381.63;4954851;29;20416;-91
2024/03/22 16:23:52;;;;;;;;;;;;;;;12.38;100.00;99385.16;4969534;28;20361;-92
2024/03/22 16:26:17;;;;;;;;;;;;;;;12.40;100.00;99388.59;4952362;29;19929;-90
2024/03/22 16:28:52;;;;;;;;;;;;;;;12.44;100.00;99392.75;4970113;28;19922;-90
2024/03/22 16:31:18;;;;;;;;;;;;;;;12.45;100.00;99383.84;4969739;28;19969;-87
2024/03/22 16:33:46;;;;;;;;;;;;;;;12.45;100.00;99380.34;4955188;29;19962;-82
2024/03/22 16:36:11;;;;;;;;;;;;;;;12.47;100.00;99376.66;4953681;29;19919;-86
2024/03/22 16:38:40;;;;;;;;;;;;;;;12.50;100.00;99376.47;4955229;29;20392;-87
2024/03/22 16:41:05;;;;;;;;;;;;;;;12.50;100.00;99372.97;4952323;29;20332;-89
2024/03/22 16:43:31;;;;;;;;;;;;;;;12.51;100.00;99370.22;4954429;29;19966;-85
2024/03/22 16:45:56;;;;;;;;;;;;;;;12.54;100.00;99372.72;4953494;29;19919;-85
2024/03/22 16:48:21;;;;;;;;;;;;;;;12.57;100.00;99368.16;4954848;29;19918;-88
2024/03/22 16:50:54;;;;;;;;;;;;;;;12.58;100.00;99369.88;4969667;28;19929;-87
2024/03/22 16:53:21;;;;;;;;;;;;;;;12.74;100.00;99362.72;4954375;29;19929;-85
2024/03/22 16:55:46;;;;;;;;;;;;;;;12.68;100.00;99360.41;4968838;28;19918;-94
2024/03/22 16:58:19;;;;;;;;;;;;;;;12.65;100.00;99366.78;4954717;29;19929;-87
2024/03/22 17:00:45;;;;;;;;;;;;;;;12.67;100.00;99364.03;4968935;28;20061;-89
2024/03/22 17:03:10;;;;;;;;;;;;;;;12.69;100.00;99364.78;4953291;29;19962;-84
2024/03/22 17:05:43;;;;;;;;;;;;;;;12.68;100.00;99361.28;4954167;28;20405;-87
2024/03/22 17:08:09;;;;;;;;;;;;;;;12.37;100.00;99359.53;4953817;29;19918;-89
2024/03/22 17:10:40;;;;;;;;;;;;;;;11.72;100.00;99349.81;4952744;29;19977;-85
2024/03/22 17:13:23;;;;;;;;;;;;;;;11.43;100.00;99341.63;4969064;28;20029;-91
2024/03/22 17:15:48;;;;;;;;;;;;;;;11.22;100.00;99345.44;4954412;29;20366;-87
2024/03/22 17:18:14;;;;;;;;;;;;;;;11.08;100.00;99333.72;4952853;29;19922;-87
2024/03/22 17:20:54;;;;;;;;;;;;;;;11.04;100.00;99340.16;4954216;29;19973;-88
2024/03/22 17:23:20;;;;;;;;;;;;;;;10.88;100.00;99337.44;4953372;29;19922;-89
2024/03/22 17:25:48;;;;;;;;;;;;;;;10.82;100.00;99329.78;4951216;29;19914;-88
2024/03/22 17:28:16;;;;;;;;;;;;;;;10.72;100.00;99324.09;4954399;29;20310;-90
2024/03/22 17:31:02;;;;;;;;;;;;;;;;;;;;;
2024/03/22 17:33:27;;;;;;;;;;;;;;;10.60;100.00;99321.22;4954194;29;19918;-85
2024/03/22 17:38:38;;;;;;;;;;;;;;;10.49;100.00;99316.44;4980139;23;19926;-90
2024/03/22 17:41:03;;;;;;;;;;;;;;;10.41;100.00;99316.81;4952252;29;19918;-87
2024/03/22 17:46:12;;;;;;;;;;;;;;;10.33;100.00;99311.06;4954090;29;19930;-87
2024/03/22 17:48:37;;;;;;;;;;;;;;;10.28;100.00;99311.25;4952333;29;20378;-86
2024/03/22 17:51:04;;;;;;;;;;;;;;;10.25;100.00;99308.75;4954172;29;19922;-88
2024/03/22 17:53:29;;;;;;;;;;;;;;;10.22;100.00;99311.53;4952461;29;19918;-90
2024/03/22 17:55:54;;;;;;;;;;;;;;;10.16;100.00;99307.44;4952733;29;19954;-87
2024/03/22 17:58:19;;;;;;;;;;;;;;;10.13;100.00;99306.69;4952530;29;20303;-87
2024/03/22 18:00:45;;;;;;;;;;;;;;;10.06;100.00;99306.13;4953067;29;19923;-87
2024/03/22 18:03:10;;;;;;;;;;;;;;;10.06;100.00;99314.06;4953254;29;19925;-88
2024/03/22 18:05:35;;;;;;;;;;;;;;;9.98;100.00;99306.50;4953586;29;19919;-86
2024/03/22 18:08:01;;;;;;;;;;;;;;;9.98;100.00;99301.22;4952494;29;19918;-86
2024/03/22 18:10:27;;;;;;;;;;;;;;;9.93;100.00;99300.56;4952376;29;19922;-88
2024/03/22 18:12:53;;;;;;;;;;;;;;;9.88;100.00;99296.47;4953147;29;19914;-86
2024/03/22 18:15:18;;;;;;;;;;;;;;;9.84;100.00;99301.00;4936604;29;19919;-88
2024/03/22 18:17:43;;;;;;;;;;;;;;;9.77;100.00;99294.31;4957415;28;20070;-87
2024/03/22 18:20:09;;;;;;;;;;;;;;;9.81;100.00;99295.88;4957314;29;19926;-88
2024/03/22 18:22:34;;;;;;;;;;;;;;;9.75;100.00;99288.25;4956406;29;19927;-86
2024/03/22 18:25:03;;;;;;;;;;;;;;;9.73;100.00;99283.03;4956895;29;19915;-86
2024/03/22 18:27:28;;;;;;;;;;;;;;;9.70;100.00;99290.22;4958026;29;19929;-87
2024/03/22 18:29:53;;;;;;;;;;;;;;;9.71;100.00;99284.00;4956311;29;19918;-87
2024/03/22 18:32:19;;;;;;;;;;;;;;;9.67;100.00;99285.97;4956275;29;20262;-88
2024/03/22 18:34:44;;;;;;;;;;;;;;;9.64;100.00;99281.66;4958437;29;19927;-88
2024/03/22 18:37:18;;;;;;;;;;;;;;;9.61;100.00;99279.16;4957094;29;19985;-90
2024/03/22 18:39:44;;;;;;;;;;;;;;;9.62;100.00;99283.53;4956717;29;19958;-90
2024/03/22 18:42:09;;;;;;;;;;;;;;;9.60;100.00;99271.28;4958293;29;19922;-89
2024/03/22 18:47:52;;;;;;;;;;;;;;;9.55;100.00;99273.28;4938613;23;19980;-89
2024/03/22 18:50:17;;;;;;;;;;;;;;;9.55;100.00;99279.44;4972075;28;20417;-90
2024/03/22 18:52:43;;;;;;;;;;;;;;;9.44;100.00;99279.97;4956014;29;19918;-88
2024/03/22 18:55:08;;;;;;;;;;;;;;;9.47;100.00;99271.00;4954392;29;19925;-87
2024/03/22 18:57:33;;;;;;;;;;;;;;;9.50;100.00;99275.31;4955826;29;19922;-88
2024/03/22 18:59:59;;;;;;;;;;;;;;;9.43;100.00;99262.38;4955611;29;19922;-85
2024/03/22 19:02:24;;;;;;;;;;;;;;;9.43;100.00;99267.66;4955585;29;20013;-91
2024/03/22 19:04:50;;;;;;;;;;;;;;;9.62;100.00;99261.47;4955553;29;19919;-88
2024/03/22 19:07:16;;;;;;;;;;;;;;;9.32;100.00;99250.56;4957216;29;19919;-91
2024/03/22 19:09:41;;;;;;;;;;;;;;;9.12;100.00;99249.69;4954183;29;19918;-88
2024/03/22 19:12:07;;;;;;;;;;;;;;;8.99;100.00;99253.81;4957227;29;20013;-86
2024/03/22 19:14:32;;;;;;;;;;;;;;;8.91;100.00;99246.22;4956615;29;19918;-87
2024/03/22 19:16:57;;;;;;;;;;;;;;;9.45;100.00;99239.34;4956606;29;19922;-84
2024/03/22 19:19:23;;;;;;;;;;;;;;;8.65;100.00;99234.19;4956494;29;19919;-87
2024/03/22 19:21:48;;;;;;;;;;;;;;;8.36;100.00;99239.75;4956650;29;19922;-87
2024/03/22 19:24:22;;;;;;;;;;;;;;;8.16;100.00;99226.53;4956285;29;20491;-89
2024/03/22 19:26:47;;;;;;;;;;;;;;;8.14;100.00;99228.41;4956492;29;19946;-87
2024/03/22 19:29:13;;;;;;;;;;;;;;;8.04;100.00;99235.84;4956035;28;20357;-87
2024/03/22 19:31:41;;;;;;;;;;;;;;;8.12;100.00;99223.19;4956351;29;19998;-89
2024/03/22 19:34:15;;;;;;;;;;;;;;;8.01;100.00;99217.50;4957366;29;20378;-95
2024/03/22 19:36:41;;;;;;;;;;;;;;;8.00;100.00;99218.41;4954572;29;20877;-85
2024/03/22 19:39:09;;;;;;;;;;;;;;;7.98;100.00;99217.63;4956104;29;19919;-88
2024/03/22 19:41:38;;;;;;;;;;;;;;;7.97;100.00;99215.88;4954892;29;19923;-89
2024/03/22 19:44:03;;;;;;;;;;;;;;;7.96;100.00;99214.16;4956304;29;19925;-90
2024/03/22 19:46:29;;;;;;;;;;;;;;;7.92;100.00;99208.16;4970933;28;19918;-87
2024/03/22 19:48:57;;;;;;;;;;;;;;;7.83;100.00;99197.97;4955792;29;20742;-90
2024/03/22 19:51:26;;;;;;;;;;;;;;;7.86;100.00;99207.56;4970823;28;20453;-86
2024/03/22 19:53:55;;;;;;;;;;;;;;;8.09;100.00;99198.69;4955361;29;19930;-87
2024/03/22 19:56:23;;;;;;;;;;;;;;;7.93;100.00;99199.34;4954492;29;20293;-90
2024/03/22 19:58:48;;;;;;;;;;;;;;;7.82;100.00;99191.00;4955857;29;20008;-88